sensor_id;sensor_type;location;lat;lon;timestamp;P1;durP1;ratioP1;P2;durP2;ratioP2
66485;SDS011;53303;47.476;8.084;2023-09-19T00:00:36;2.42;;;1.08;;
66485;SDS011;53303;47.476;8.084;2023-09-19T00:03:02;2.58;;;0.90;;
66485;SDS011;53303;47.476;8.084;2023-09-19T00:05:33;2.42;;;0.85;;
66485;SDS011;53303;47.476;8.084;2023-09-19T00:08:00;2.35;;;0.90;;
66485;SDS011;53303;47.476;8.084;2023-09-19T00:10:29;1.88;;;0.77;;
66485;SDS011;53303;47.476;8.084;2023-09-19T00:13:00;3.60;;;0.88;;
66485;SDS011;53303;47.476;8.084;2023-09-19T00:15:30;3.95;;;0.95;;
66485;SDS011;53303;47.476;8.084;2023-09-19T00:18:00;2.72;;;0.85;;
66485;SDS011;53303;47.476;8.084;2023-09-19T00:20:26;3.10;;;0.70;;
66485;SDS011;53303;47.476;8.084;2023-09-19T00:22:51;1.58;;;0.75;;
66485;SDS011;53303;47.476;8.084;2023-09-19T00:25:18;2.10;;;0.70;;
66485;SDS011;53303;47.476;8.084;2023-09-19T00:27:44;2.55;;;0.70;;
66485;SDS011;53303;47.476;8.084;2023-09-19T00:30:13;2.90;;;0.90;;
66485;SDS011;53303;47.476;8.084;2023-09-19T00:32:45;2.90;;;0.90;;
66485;SDS011;53303;47.476;8.084;2023-09-19T00:35:14;4.60;;;0.90;;
66485;SDS011;53303;47.476;8.084;2023-09-19T00:37:41;3.50;;;0.93;;
66485;SDS011;53303;47.476;8.084;2023-09-19T00:40:07;3.22;;;0.88;;
66485;SDS011;53303;47.476;8.084;2023-09-19T00:42:43;3.35;;;0.88;;
66485;SDS011;53303;47.476;8.084;2023-09-19T00:45:09;2.85;;;0.90;;
66485;SDS011;53303;47.476;8.084;2023-09-19T00:47:44;5.22;;;0.98;;
66485;SDS011;53303;47.476;8.084;2023-09-19T00:50:14;5.35;;;0.82;;
66485;SDS011;53303;47.476;8.084;2023-09-19T00:52:42;3.13;;;0.90;;
66485;SDS011;53303;47.476;8.084;2023-09-19T00:55:09;3.55;;;0.80;;
66485;SDS011;53303;47.476;8.084;2023-09-19T00:57:36;3.50;;;0.85;;
66485;SDS011;53303;47.476;8.084;2023-09-19T01:00:06;2.08;;;0.70;;
66485;SDS011;53303;47.476;8.084;2023-09-19T01:02:33;3.45;;;0.90;;
66485;SDS011;53303;47.476;8.084;2023-09-19T01:05:00;3.90;;;0.90;;
66485;SDS011;53303;47.476;8.084;2023-09-19T01:07:29;5.70;;;1.10;;
66485;SDS011;53303;47.476;8.084;2023-09-19T01:10:00;3.15;;;0.98;;
66485;SDS011;53303;47.476;8.084;2023-09-19T01:12:33;2.78;;;0.75;;
66485;SDS011;53303;47.476;8.084;2023-09-19T01:15:12;2.90;;;1.00;;
66485;SDS011;53303;47.476;8.084;2023-09-19T01:17:52;2.58;;;0.85;;
66485;SDS011;53303;47.476;8.084;2023-09-19T01:20:35;2.28;;;0.70;;
66485;SDS011;53303;47.476;8.084;2023-09-19T01:37:18;2.75;;;0.88;;
66485;SDS011;53303;47.476;8.084;2023-09-19T01:39:49;2.92;;;0.80;;
66485;SDS011;53303;47.476;8.084;2023-09-19T01:48:24;3.00;;;0.98;;
66485;SDS011;53303;47.476;8.084;2023-09-19T01:50:59;2.92;;;0.90;;
66485;SDS011;53303;47.476;8.084;2023-09-19T01:53:28;3.15;;;0.90;;
66485;SDS011;53303;47.476;8.084;2023-09-19T01:55:58;4.53;;;0.95;;
66485;SDS011;53303;47.476;8.084;2023-09-19T02:01:00;2.85;;;0.93;;
66485;SDS011;53303;47.476;8.084;2023-09-19T02:03:26;5.13;;;0.80;;
66485;SDS011;53303;47.476;8.084;2023-09-19T02:05:54;3.28;;;0.90;;
66485;SDS011;53303;47.476;8.084;2023-09-19T02:08:20;6.20;;;1.20;;
66485;SDS011;53303;47.476;8.084;2023-09-19T02:10:50;4.45;;;1.38;;
66485;SDS011;53303;47.476;8.084;2023-09-19T02:13:16;2.80;;;0.85;;
66485;SDS011;53303;47.476;8.084;2023-09-19T02:15:44;4.47;;;0.93;;
66485;SDS011;53303;47.476;8.084;2023-09-19T02:18:10;3.78;;;1.00;;
66485;SDS011;53303;47.476;8.084;2023-09-19T02:20:39;2.47;;;0.93;;
66485;SDS011;53303;47.476;8.084;2023-09-19T02:23:05;3.40;;;0.80;;
66485;SDS011;53303;47.476;8.084;2023-09-19T02:25:31;3.00;;;0.80;;
66485;SDS011;53303;47.476;8.084;2023-09-19T02:27:57;3.58;;;0.85;;
66485;SDS011;53303;47.476;8.084;2023-09-19T02:30:26;3.05;;;0.90;;
66485;SDS011;53303;47.476;8.084;2023-09-19T02:32:51;4.15;;;1.00;;
66485;SDS011;53303;47.476;8.084;2023-09-19T02:35:17;4.13;;;0.80;;
66485;SDS011;53303;47.476;8.084;2023-09-19T02:37:46;4.68;;;0.75;;
66485;SDS011;53303;47.476;8.084;2023-09-19T02:40:11;2.80;;;0.80;;
66485;SDS011;53303;47.476;8.084;2023-09-19T02:43:03;3.80;;;0.85;;
66485;SDS011;53303;47.476;8.084;2023-09-19T02:45:29;3.08;;;0.90;;
66485;SDS011;53303;47.476;8.084;2023-09-19T02:47:55;1.85;;;0.82;;
66485;SDS011;53303;47.476;8.084;2023-09-19T02:50:22;2.80;;;0.80;;
66485;SDS011;53303;47.476;8.084;2023-09-19T02:52:47;2.67;;;1.00;;
66485;SDS011;53303;47.476;8.084;2023-09-19T02:55:14;2.17;;;0.82;;
66485;SDS011;53303;47.476;8.084;2023-09-19T02:57:45;4.03;;;0.75;;
66485;SDS011;53303;47.476;8.084;2023-09-19T03:00:14;3.28;;;0.90;;
66485;SDS011;53303;47.476;8.084;2023-09-19T03:02:40;4.15;;;0.82;;
66485;SDS011;53303;47.476;8.084;2023-09-19T03:05:06;2.35;;;0.80;;
66485;SDS011;53303;47.476;8.084;2023-09-19T03:07:32;1.20;;;0.60;;
66485;SDS011;53303;47.476;8.084;2023-09-19T03:09:58;2.75;;;0.80;;
66485;SDS011;53303;47.476;8.084;2023-09-19T03:12:26;1.55;;;0.73;;
66485;SDS011;53303;47.476;8.084;2023-09-19T03:14:52;3.05;;;0.98;;
66485;SDS011;53303;47.476;8.084;2023-09-19T03:17:17;4.10;;;0.90;;
66485;SDS011;53303;47.476;8.084;2023-09-19T03:19:44;1.48;;;0.70;;
66485;SDS011;53303;47.476;8.084;2023-09-19T03:22:10;2.10;;;0.80;;
66485;SDS011;53303;47.476;8.084;2023-09-19T03:24:37;4.07;;;0.80;;
66485;SDS011;53303;47.476;8.084;2023-09-19T03:27:03;2.42;;;0.80;;
66485;SDS011;53303;47.476;8.084;2023-09-19T03:29:29;3.80;;;1.00;;
66485;SDS011;53303;47.476;8.084;2023-09-19T03:31:54;3.50;;;0.90;;
66485;SDS011;53303;47.476;8.084;2023-09-19T03:34:20;3.10;;;0.88;;
66485;SDS011;53303;47.476;8.084;2023-09-19T03:36:48;3.10;;;0.80;;
66485;SDS011;53303;47.476;8.084;2023-09-19T03:39:15;2.85;;;0.80;;
66485;SDS011;53303;47.476;8.084;2023-09-19T03:41:43;4.28;;;1.00;;
66485;SDS011;53303;47.476;8.084;2023-09-19T03:44:11;3.40;;;0.82;;
66485;SDS011;53303;47.476;8.084;2023-09-19T03:46:36;1.92;;;0.70;;
66485;SDS011;53303;47.476;8.084;2023-09-19T03:49:02;2.15;;;0.90;;
66485;SDS011;53303;47.476;8.084;2023-09-19T03:51:28;3.60;;;0.82;;
66485;SDS011;53303;47.476;8.084;2023-09-19T03:53:53;3.72;;;0.90;;
66485;SDS011;53303;47.476;8.084;2023-09-19T03:56:18;1.58;;;0.68;;
66485;SDS011;53303;47.476;8.084;2023-09-19T03:58:44;1.88;;;0.80;;
66485;SDS011;53303;47.476;8.084;2023-09-19T04:01:14;2.03;;;0.82;;
66485;SDS011;53303;47.476;8.084;2023-09-19T04:03:41;3.67;;;0.80;;
66485;SDS011;53303;47.476;8.084;2023-09-19T04:06:16;4.07;;;0.82;;
66485;SDS011;53303;47.476;8.084;2023-09-19T04:08:42;5.30;;;1.08;;
66485;SDS011;53303;47.476;8.084;2023-09-19T04:11:09;10.52;;;1.23;;
66485;SDS011;53303;47.476;8.084;2023-09-19T04:13:35;4.75;;;0.93;;
66485;SDS011;53303;47.476;8.084;2023-09-19T04:16:01;3.67;;;0.82;;
66485;SDS011;53303;47.476;8.084;2023-09-19T04:18:28;2.15;;;0.90;;
66485;SDS011;53303;47.476;8.084;2023-09-19T04:20:56;4.20;;;0.98;;
66485;SDS011;53303;47.476;8.084;2023-09-19T04:23:22;7.47;;;1.20;;
66485;SDS011;53303;47.476;8.084;2023-09-19T04:25:52;3.80;;;1.13;;
66485;SDS011;53303;47.476;8.084;2023-09-19T04:28:17;6.53;;;1.17;;
66485;SDS011;53303;47.476;8.084;2023-09-19T04:30:42;4.90;;;1.00;;
66485;SDS011;53303;47.476;8.084;2023-09-19T04:33:08;3.40;;;0.88;;
66485;SDS011;53303;47.476;8.084;2023-09-19T04:35:33;4.47;;;0.90;;
66485;SDS011;53303;47.476;8.084;2023-09-19T04:38:00;4.55;;;0.77;;
66485;SDS011;53303;47.476;8.084;2023-09-19T04:40:25;4.30;;;0.90;;
66485;SDS011;53303;47.476;8.084;2023-09-19T04:42:54;2.92;;;0.95;;
66485;SDS011;53303;47.476;8.084;2023-09-19T04:45:26;3.47;;;0.80;;
66485;SDS011;53303;47.476;8.084;2023-09-19T04:47:52;3.13;;;0.90;;
66485;SDS011;53303;47.476;8.084;2023-09-19T04:50:18;3.40;;;0.95;;
66485;SDS011;53303;47.476;8.084;2023-09-19T04:52:44;3.97;;;1.13;;
66485;SDS011;53303;47.476;8.084;2023-09-19T04:57:41;4.72;;;1.05;;
66485;SDS011;53303;47.476;8.084;2023-09-19T05:00:08;4.03;;;0.80;;
66485;SDS011;53303;47.476;8.084;2023-09-19T05:02:39;9.35;;;1.20;;
66485;SDS011;53303;47.476;8.084;2023-09-19T05:05:06;3.88;;;0.90;;
66485;SDS011;53303;47.476;8.084;2023-09-19T05:07:33;2.50;;;0.65;;
66485;SDS011;53303;47.476;8.084;2023-09-19T05:09:59;4.88;;;1.15;;
66485;SDS011;53303;47.476;8.084;2023-09-19T05:12:25;5.40;;;1.05;;
66485;SDS011;53303;47.476;8.084;2023-09-19T05:14:53;5.78;;;0.95;;
66485;SDS011;53303;47.476;8.084;2023-09-19T05:17:18;4.57;;;1.33;;
66485;SDS011;53303;47.476;8.084;2023-09-19T05:19:44;5.65;;;1.55;;
66485;SDS011;53303;47.476;8.084;2023-09-19T05:22:11;5.13;;;1.48;;
66485;SDS011;53303;47.476;8.084;2023-09-19T05:24:37;7.47;;;1.40;;
66485;SDS011;53303;47.476;8.084;2023-09-19T05:27:04;6.13;;;1.42;;
66485;SDS011;53303;47.476;8.084;2023-09-19T05:29:32;5.68;;;1.35;;
66485;SDS011;53303;47.476;8.084;2023-09-19T05:31:59;6.13;;;1.40;;
66485;SDS011;53303;47.476;8.084;2023-09-19T05:34:25;6.07;;;1.60;;
66485;SDS011;53303;47.476;8.084;2023-09-19T05:36:55;6.55;;;1.42;;
66485;SDS011;53303;47.476;8.084;2023-09-19T05:39:20;4.78;;;1.42;;
66485;SDS011;53303;47.476;8.084;2023-09-19T05:41:46;4.47;;;1.35;;
66485;SDS011;53303;47.476;8.084;2023-09-19T05:44:12;5.25;;;1.33;;
66485;SDS011;53303;47.476;8.084;2023-09-19T05:46:39;5.90;;;1.30;;
66485;SDS011;53303;47.476;8.084;2023-09-19T05:49:07;6.60;;;1.40;;
66485;SDS011;53303;47.476;8.084;2023-09-19T05:51:35;5.32;;;1.58;;
66485;SDS011;53303;47.476;8.084;2023-09-19T05:54:00;5.88;;;1.35;;
66485;SDS011;53303;47.476;8.084;2023-09-19T05:56:26;4.50;;;1.30;;
66485;SDS011;53303;47.476;8.084;2023-09-19T05:58:52;4.75;;;1.25;;
66485;SDS011;53303;47.476;8.084;2023-09-19T06:01:18;5.82;;;1.35;;
66485;SDS011;53303;47.476;8.084;2023-09-19T06:03:44;6.40;;;1.30;;
66485;SDS011;53303;47.476;8.084;2023-09-19T06:06:11;4.40;;;1.35;;
66485;SDS011;53303;47.476;8.084;2023-09-19T06:08:37;6.15;;;1.38;;
66485;SDS011;53303;47.476;8.084;2023-09-19T06:11:02;5.55;;;1.70;;
66485;SDS011;53303;47.476;8.084;2023-09-19T06:13:32;7.10;;;1.63;;
66485;SDS011;53303;47.476;8.084;2023-09-19T06:15:58;3.83;;;1.20;;
66485;SDS011;53303;47.476;8.084;2023-09-19T06:18:28;5.80;;;1.50;;
66485;SDS011;53303;47.476;8.084;2023-09-19T06:20:54;5.15;;;1.30;;
66485;SDS011;53303;47.476;8.084;2023-09-19T06:23:20;3.92;;;1.50;;
66485;SDS011;53303;47.476;8.084;2023-09-19T06:25:46;5.75;;;1.50;;
66485;SDS011;53303;47.476;8.084;2023-09-19T06:28:13;4.93;;;1.45;;
66485;SDS011;53303;47.476;8.084;2023-09-19T06:30:45;3.83;;;1.20;;
66485;SDS011;53303;47.476;8.084;2023-09-19T06:33:10;7.80;;;1.67;;
66485;SDS011;53303;47.476;8.084;2023-09-19T06:35:37;4.00;;;1.23;;
66485;SDS011;53303;47.476;8.084;2023-09-19T06:38:03;6.70;;;1.50;;
66485;SDS011;53303;47.476;8.084;2023-09-19T06:40:29;5.63;;;1.48;;
66485;SDS011;53303;47.476;8.084;2023-09-19T06:42:56;6.35;;;1.40;;
66485;SDS011;53303;47.476;8.084;2023-09-19T06:45:21;4.75;;;1.40;;
66485;SDS011;53303;47.476;8.084;2023-09-19T06:47:51;6.78;;;1.38;;
66485;SDS011;53303;47.476;8.084;2023-09-19T06:50:17;6.25;;;1.30;;
66485;SDS011;53303;47.476;8.084;2023-09-19T06:52:45;6.65;;;1.40;;
66485;SDS011;53303;47.476;8.084;2023-09-19T06:55:14;6.72;;;1.70;;
66485;SDS011;53303;47.476;8.084;2023-09-19T06:57:42;6.47;;;1.48;;
66485;SDS011;53303;47.476;8.084;2023-09-19T07:00:09;4.85;;;1.40;;
66485;SDS011;53303;47.476;8.084;2023-09-19T07:02:43;5.38;;;1.65;;
66485;SDS011;53303;47.476;8.084;2023-09-19T07:05:33;8.45;;;1.52;;
66485;SDS011;53303;47.476;8.084;2023-09-19T07:08:03;5.47;;;1.40;;
66485;SDS011;53303;47.476;8.084;2023-09-19T07:10:30;3.78;;;1.38;;
66485;SDS011;53303;47.476;8.084;2023-09-19T07:12:59;5.47;;;1.58;;
66485;SDS011;53303;47.476;8.084;2023-09-19T07:15:25;3.97;;;1.17;;
66485;SDS011;53303;47.476;8.084;2023-09-19T07:17:56;4.35;;;1.40;;
66485;SDS011;53303;47.476;8.084;2023-09-19T07:20:22;4.60;;;1.33;;
66485;SDS011;53303;47.476;8.084;2023-09-19T07:22:51;4.72;;;1.75;;
66485;SDS011;53303;47.476;8.084;2023-09-19T07:25:17;5.10;;;1.45;;
66485;SDS011;53303;47.476;8.084;2023-09-19T07:27:43;5.32;;;1.65;;
66485;SDS011;53303;47.476;8.084;2023-09-19T07:30:09;6.03;;;1.50;;
66485;SDS011;53303;47.476;8.084;2023-09-19T07:32:36;5.72;;;1.40;;
66485;SDS011;53303;47.476;8.084;2023-09-19T07:35:03;4.47;;;1.42;;
66485;SDS011;53303;47.476;8.084;2023-09-19T07:37:30;4.32;;;1.40;;
66485;SDS011;53303;47.476;8.084;2023-09-19T07:39:58;5.13;;;1.40;;
66485;SDS011;53303;47.476;8.084;2023-09-19T07:42:24;5.75;;;1.75;;
66485;SDS011;53303;47.476;8.084;2023-09-19T07:44:50;6.78;;;1.58;;
66485;SDS011;53303;47.476;8.084;2023-09-19T07:47:16;4.57;;;1.50;;
66485;SDS011;53303;47.476;8.084;2023-09-19T07:49:42;5.85;;;1.50;;
66485;SDS011;53303;47.476;8.084;2023-09-19T07:52:08;3.85;;;1.38;;
66485;SDS011;53303;47.476;8.084;2023-09-19T07:54:34;4.25;;;1.40;;
66485;SDS011;53303;47.476;8.084;2023-09-19T07:57:03;4.80;;;1.20;;
66485;SDS011;53303;47.476;8.084;2023-09-19T07:59:29;5.38;;;1.70;;
66485;SDS011;53303;47.476;8.084;2023-09-19T08:01:55;7.28;;;1.58;;
66485;SDS011;53303;47.476;8.084;2023-09-19T08:04:23;7.13;;;1.67;;
66485;SDS011;53303;47.476;8.084;2023-09-19T08:06:51;6.40;;;1.55;;
66485;SDS011;53303;47.476;8.084;2023-09-19T08:09:20;7.38;;;1.73;;
66485;SDS011;53303;47.476;8.084;2023-09-19T08:11:46;3.97;;;1.30;;
66485;SDS011;53303;47.476;8.084;2023-09-19T08:14:13;4.45;;;1.35;;
66485;SDS011;53303;47.476;8.084;2023-09-19T08:16:39;3.40;;;1.23;;
66485;SDS011;53303;47.476;8.084;2023-09-19T08:19:07;3.38;;;1.40;;
66485;SDS011;53303;47.476;8.084;2023-09-19T08:21:35;5.40;;;1.70;;
66485;SDS011;53303;47.476;8.084;2023-09-19T08:24:01;5.72;;;1.52;;
66485;SDS011;53303;47.476;8.084;2023-09-19T08:26:32;4.47;;;1.48;;
66485;SDS011;53303;47.476;8.084;2023-09-19T08:29:01;5.72;;;1.52;;
66485;SDS011;53303;47.476;8.084;2023-09-19T08:31:30;5.05;;;1.30;;
66485;SDS011;53303;47.476;8.084;2023-09-19T08:34:00;5.28;;;1.60;;
66485;SDS011;53303;47.476;8.084;2023-09-19T08:36:26;5.97;;;1.65;;
66485;SDS011;53303;47.476;8.084;2023-09-19T08:38:51;3.67;;;1.38;;
66485;SDS011;53303;47.476;8.084;2023-09-19T08:41:17;5.63;;;1.75;;
66485;SDS011;53303;47.476;8.084;2023-09-19T08:43:42;5.95;;;1.77;;
66485;SDS011;53303;47.476;8.084;2023-09-19T08:46:11;5.55;;;1.70;;
66485;SDS011;53303;47.476;8.084;2023-09-19T08:51:43;4.35;;;1.40;;
66485;SDS011;53303;47.476;8.084;2023-09-19T08:54:24;4.82;;;1.60;;
66485;SDS011;53303;47.476;8.084;2023-09-19T08:56:53;4.18;;;1.45;;
66485;SDS011;53303;47.476;8.084;2023-09-19T08:59:22;4.90;;;1.35;;
66485;SDS011;53303;47.476;8.084;2023-09-19T09:01:52;5.25;;;1.63;;
66485;SDS011;53303;47.476;8.084;2023-09-19T09:04:19;5.90;;;1.77;;
66485;SDS011;53303;47.476;8.084;2023-09-19T09:06:45;5.68;;;1.90;;
66485;SDS011;53303;47.476;8.084;2023-09-19T09:09:14;5.80;;;1.90;;
66485;SDS011;53303;47.476;8.084;2023-09-19T09:11:40;5.32;;;1.83;;
66485;SDS011;53303;47.476;8.084;2023-09-19T09:14:06;4.85;;;1.67;;
66485;SDS011;53303;47.476;8.084;2023-09-19T09:16:35;5.30;;;2.03;;
66485;SDS011;53303;47.476;8.084;2023-09-19T09:19:00;4.65;;;1.80;;
66485;SDS011;53303;47.476;8.084;2023-09-19T09:21:26;5.10;;;1.70;;
66485;SDS011;53303;47.476;8.084;2023-09-19T09:23:53;5.20;;;1.83;;
66485;SDS011;53303;47.476;8.084;2023-09-19T09:29:10;6.10;;;2.00;;
66485;SDS011;53303;47.476;8.084;2023-09-19T09:31:35;4.70;;;1.80;;
66485;SDS011;53303;47.476;8.084;2023-09-19T09:34:02;5.03;;;2.10;;
66485;SDS011;53303;47.476;8.084;2023-09-19T09:36:38;4.90;;;2.10;;
66485;SDS011;53303;47.476;8.084;2023-09-19T09:41:52;5.75;;;1.83;;
66485;SDS011;53303;47.476;8.084;2023-09-19T09:44:17;5.28;;;2.00;;
66485;SDS011;53303;47.476;8.084;2023-09-19T09:46:44;5.50;;;1.88;;
66485;SDS011;53303;47.476;8.084;2023-09-19T09:49:26;5.43;;;1.77;;
66485;SDS011;53303;47.476;8.084;2023-09-19T09:52:02;5.25;;;2.00;;
66485;SDS011;53303;47.476;8.084;2023-09-19T09:54:32;4.63;;;1.90;;
66485;SDS011;53303;47.476;8.084;2023-09-19T09:57:07;5.30;;;1.90;;
66485;SDS011;53303;47.476;8.084;2023-09-19T10:02:18;5.28;;;2.10;;
66485;SDS011;53303;47.476;8.084;2023-09-19T10:04:53;3.92;;;1.60;;
66485;SDS011;53303;47.476;8.084;2023-09-19T10:07:28;4.55;;;1.90;;
66485;SDS011;53303;47.476;8.084;2023-09-19T10:10:04;5.38;;;1.85;;
66485;SDS011;53303;47.476;8.084;2023-09-19T10:12:46;4.63;;;1.92;;
66485;SDS011;53303;47.476;8.084;2023-09-19T10:15:13;6.95;;;1.83;;
66485;SDS011;53303;47.476;8.084;2023-09-19T10:17:42;3.53;;;1.50;;
66485;SDS011;53303;47.476;8.084;2023-09-19T10:20:14;4.97;;;1.95;;
66485;SDS011;53303;47.476;8.084;2023-09-19T10:22:57;4.03;;;1.60;;
66485;SDS011;53303;47.476;8.084;2023-09-19T10:25:25;5.43;;;1.98;;
66485;SDS011;53303;47.476;8.084;2023-09-19T10:27:56;5.13;;;1.85;;
66485;SDS011;53303;47.476;8.084;2023-09-19T10:30:27;5.22;;;1.73;;
66485;SDS011;53303;47.476;8.084;2023-09-19T10:33:04;5.25;;;1.60;;
66485;SDS011;53303;47.476;8.084;2023-09-19T10:35:31;4.45;;;1.73;;
66485;SDS011;53303;47.476;8.084;2023-09-19T10:38:01;5.97;;;1.75;;
66485;SDS011;53303;47.476;8.084;2023-09-19T10:40:27;5.80;;;2.00;;
66485;SDS011;53303;47.476;8.084;2023-09-19T10:43:03;5.20;;;1.73;;
66485;SDS011;53303;47.476;8.084;2023-09-19T10:45:33;5.13;;;1.70;;
66485;SDS011;53303;47.476;8.084;2023-09-19T10:48:00;4.38;;;1.70;;
66485;SDS011;53303;47.476;8.084;2023-09-19T10:50:31;4.45;;;1.70;;
66485;SDS011;53303;47.476;8.084;2023-09-19T10:53:06;6.03;;;1.55;;
66485;SDS011;53303;47.476;8.084;2023-09-19T10:55:36;4.18;;;1.60;;
66485;SDS011;53303;47.476;8.084;2023-09-19T10:58:02;6.00;;;1.52;;
66485;SDS011;53303;47.476;8.084;2023-09-19T11:03:37;4.80;;;1.85;;
66485;SDS011;53303;47.476;8.084;2023-09-19T11:06:17;4.03;;;1.65;;
66485;SDS011;53303;47.476;8.084;2023-09-19T11:09:02;5.43;;;1.70;;
66485;SDS011;53303;47.476;8.084;2023-09-19T11:20:17;4.75;;;1.55;;
66485;SDS011;53303;47.476;8.084;2023-09-19T11:30:36;5.03;;;1.80;;
66485;SDS011;53303;47.476;8.084;2023-09-19T11:33:21;4.13;;;1.63;;
66485;SDS011;53303;47.476;8.084;2023-09-19T11:36:00;5.43;;;1.83;;
66485;SDS011;53303;47.476;8.084;2023-09-19T11:46:51;3.78;;;1.80;;
66485;SDS011;53303;47.476;8.084;2023-09-19T11:49:25;5.40;;;2.10;;
66485;SDS011;53303;47.476;8.084;2023-09-19T11:51:56;4.88;;;1.90;;
66485;SDS011;53303;47.476;8.084;2023-09-19T11:54:26;4.13;;;1.70;;
66485;SDS011;53303;47.476;8.084;2023-09-19T11:56:56;6.13;;;2.10;;
66485;SDS011;53303;47.476;8.084;2023-09-19T11:59:31;4.60;;;1.95;;
66485;SDS011;53303;47.476;8.084;2023-09-19T12:01:59;6.68;;;2.05;;
66485;SDS011;53303;47.476;8.084;2023-09-19T12:04:43;5.65;;;1.92;;
66485;SDS011;53303;47.476;8.084;2023-09-19T12:07:14;5.70;;;2.08;;
66485;SDS011;53303;47.476;8.084;2023-09-19T12:09:44;5.30;;;2.28;;
66485;SDS011;53303;47.476;8.084;2023-09-19T12:12:24;10.27;;;2.08;;
66485;SDS011;53303;47.476;8.084;2023-09-19T12:14:55;5.00;;;2.30;;
66485;SDS011;53303;47.476;8.084;2023-09-19T12:17:34;5.82;;;2.13;;
66485;SDS011;53303;47.476;8.084;2023-09-19T12:20:08;5.30;;;2.08;;
66485;SDS011;53303;47.476;8.084;2023-09-19T12:22:43;6.03;;;2.05;;
66485;SDS011;53303;47.476;8.084;2023-09-19T12:25:10;6.07;;;2.15;;
66485;SDS011;53303;47.476;8.084;2023-09-19T12:27:43;6.10;;;2.42;;
66485;SDS011;53303;47.476;8.084;2023-09-19T12:30:12;5.28;;;2.10;;
66485;SDS011;53303;47.476;8.084;2023-09-19T12:32:43;5.30;;;2.30;;
66485;SDS011;53303;47.476;8.084;2023-09-19T12:35:09;5.85;;;2.05;;
66485;SDS011;53303;47.476;8.084;2023-09-19T12:37:45;5.70;;;2.13;;
66485;SDS011;53303;47.476;8.084;2023-09-19T12:40:18;5.50;;;2.00;;
66485;SDS011;53303;47.476;8.084;2023-09-19T12:42:52;4.93;;;1.88;;
66485;SDS011;53303;47.476;8.084;2023-09-19T12:45:23;6.90;;;1.90;;
66485;SDS011;53303;47.476;8.084;2023-09-19T12:51:03;6.65;;;2.28;;
66485;SDS011;53303;47.476;8.084;2023-09-19T12:53:32;5.05;;;1.92;;
66485;SDS011;53303;47.476;8.084;2023-09-19T12:56:05;4.90;;;1.83;;
66485;SDS011;53303;47.476;8.084;2023-09-19T12:58:31;6.03;;;2.03;;
66485;SDS011;53303;47.476;8.084;2023-09-19T13:01:00;4.93;;;2.00;;
66485;SDS011;53303;47.476;8.084;2023-09-19T13:03:30;5.07;;;1.95;;
66485;SDS011;53303;47.476;8.084;2023-09-19T13:06:00;4.35;;;1.90;;
66485;SDS011;53303;47.476;8.084;2023-09-19T13:08:35;6.20;;;1.90;;
66485;SDS011;53303;47.476;8.084;2023-09-19T13:16:26;5.80;;;2.03;;
66485;SDS011;53303;47.476;8.084;2023-09-19T13:18:53;5.40;;;2.20;;
66485;SDS011;53303;47.476;8.084;2023-09-19T13:21:31;5.40;;;2.17;;
66485;SDS011;53303;47.476;8.084;2023-09-19T13:24:20;5.82;;;2.17;;
66485;SDS011;53303;47.476;8.084;2023-09-19T13:26:53;6.38;;;2.60;;
66485;SDS011;53303;47.476;8.084;2023-09-19T13:29:18;6.00;;;2.30;;
66485;SDS011;53303;47.476;8.084;2023-09-19T13:31:51;6.45;;;2.45;;
66485;SDS011;53303;47.476;8.084;2023-09-19T13:34:22;6.63;;;2.53;;
66485;SDS011;53303;47.476;8.084;2023-09-19T13:36:48;5.88;;;2.60;;
66485;SDS011;53303;47.476;8.084;2023-09-19T13:39:16;7.55;;;2.42;;
66485;SDS011;53303;47.476;8.084;2023-09-19T13:41:44;6.70;;;2.42;;
66485;SDS011;53303;47.476;8.084;2023-09-19T13:44:12;6.38;;;2.40;;
66485;SDS011;53303;47.476;8.084;2023-09-19T13:46:38;9.30;;;2.95;;
66485;SDS011;53303;47.476;8.084;2023-09-19T13:49:10;5.63;;;2.63;;
66485;SDS011;53303;47.476;8.084;2023-09-19T13:51:38;5.45;;;2.22;;
66485;SDS011;53303;47.476;8.084;2023-09-19T13:54:03;4.00;;;1.77;;
66485;SDS011;53303;47.476;8.084;2023-09-19T13:56:29;5.10;;;2.22;;
66485;SDS011;53303;47.476;8.084;2023-09-19T13:58:56;6.25;;;2.70;;
66485;SDS011;53303;47.476;8.084;2023-09-19T14:01:21;5.70;;;2.50;;
66485;SDS011;53303;47.476;8.084;2023-09-19T14:03:47;6.07;;;2.45;;
66485;SDS011;53303;47.476;8.084;2023-09-19T14:06:17;6.07;;;2.60;;
66485;SDS011;53303;47.476;8.084;2023-09-19T14:08:45;5.68;;;2.40;;
66485;SDS011;53303;47.476;8.084;2023-09-19T14:11:15;6.03;;;2.20;;
66485;SDS011;53303;47.476;8.084;2023-09-19T14:13:41;5.93;;;2.50;;
66485;SDS011;53303;47.476;8.084;2023-09-19T14:16:11;8.48;;;2.70;;
66485;SDS011;53303;47.476;8.084;2023-09-19T14:18:37;7.20;;;2.70;;
66485;SDS011;53303;47.476;8.084;2023-09-19T14:21:05;5.78;;;2.33;;
66485;SDS011;53303;47.476;8.084;2023-09-19T14:23:37;6.22;;;2.30;;
66485;SDS011;53303;47.476;8.084;2023-09-19T14:26:06;5.97;;;2.53;;
66485;SDS011;53303;47.476;8.084;2023-09-19T14:28:32;5.45;;;2.30;;
66485;SDS011;53303;47.476;8.084;2023-09-19T14:31:04;6.65;;;2.70;;
66485;SDS011;53303;47.476;8.084;2023-09-19T14:33:32;6.63;;;2.53;;
66485;SDS011;53303;47.476;8.084;2023-09-19T14:35:57;7.05;;;2.35;;
66485;SDS011;53303;47.476;8.084;2023-09-19T14:38:22;5.35;;;2.20;;
66485;SDS011;53303;47.476;8.084;2023-09-19T14:40:58;5.88;;;2.53;;
66485;SDS011;53303;47.476;8.084;2023-09-19T14:43:26;6.93;;;2.15;;
66485;SDS011;53303;47.476;8.084;2023-09-19T14:45:55;6.50;;;2.70;;
66485;SDS011;53303;47.476;8.084;2023-09-19T14:48:27;6.80;;;2.50;;
66485;SDS011;53303;47.476;8.084;2023-09-19T14:50:52;8.57;;;2.17;;
66485;SDS011;53303;47.476;8.084;2023-09-19T14:53:18;5.25;;;2.28;;
66485;SDS011;53303;47.476;8.084;2023-09-19T14:55:44;7.45;;;2.65;;
66485;SDS011;53303;47.476;8.084;2023-09-19T14:58:12;5.70;;;2.13;;
66485;SDS011;53303;47.476;8.084;2023-09-19T15:00:38;4.97;;;2.30;;
66485;SDS011;53303;47.476;8.084;2023-09-19T15:03:04;6.28;;;2.05;;
66485;SDS011;53303;47.476;8.084;2023-09-19T15:05:31;6.20;;;2.28;;
66485;SDS011;53303;47.476;8.084;2023-09-19T15:07:58;5.90;;;2.30;;
66485;SDS011;53303;47.476;8.084;2023-09-19T15:10:27;4.88;;;1.95;;
66485;SDS011;53303;47.476;8.084;2023-09-19T15:12:53;6.90;;;2.25;;
66485;SDS011;53303;47.476;8.084;2023-09-19T15:15:18;4.53;;;2.00;;
66485;SDS011;53303;47.476;8.084;2023-09-19T15:17:43;5.25;;;2.30;;
66485;SDS011;53303;47.476;8.084;2023-09-19T15:20:09;5.88;;;2.42;;
66485;SDS011;53303;47.476;8.084;2023-09-19T15:22:38;4.38;;;1.95;;
66485;SDS011;53303;47.476;8.084;2023-09-19T15:25:04;5.40;;;2.15;;
66485;SDS011;53303;47.476;8.084;2023-09-19T15:27:31;6.35;;;2.20;;
66485;SDS011;53303;47.476;8.084;2023-09-19T15:29:57;5.25;;;2.17;;
66485;SDS011;53303;47.476;8.084;2023-09-19T15:32:24;5.65;;;2.17;;
66485;SDS011;53303;47.476;8.084;2023-09-19T15:34:49;6.25;;;2.20;;
66485;SDS011;53303;47.476;8.084;2023-09-19T15:37:15;6.75;;;2.13;;
66485;SDS011;53303;47.476;8.084;2023-09-19T15:39:41;6.75;;;2.10;;
66485;SDS011;53303;47.476;8.084;2023-09-19T15:42:06;7.75;;;2.05;;
66485;SDS011;53303;47.476;8.084;2023-09-19T15:44:32;7.43;;;2.30;;
66485;SDS011;53303;47.476;8.084;2023-09-19T15:46:58;7.82;;;2.50;;
66485;SDS011;53303;47.476;8.084;2023-09-19T15:49:23;5.93;;;2.35;;
66485;SDS011;53303;47.476;8.084;2023-09-19T15:51:49;9.30;;;2.40;;
66485;SDS011;53303;47.476;8.084;2023-09-19T15:54:15;6.70;;;2.50;;
66485;SDS011;53303;47.476;8.084;2023-09-19T15:56:41;7.63;;;2.33;;
66485;SDS011;53303;47.476;8.084;2023-09-19T15:59:07;9.02;;;2.33;;
66485;SDS011;53303;47.476;8.084;2023-09-19T16:01:34;6.65;;;2.00;;
66485;SDS011;53303;47.476;8.084;2023-09-19T16:04:00;8.35;;;2.28;;
66485;SDS011;53303;47.476;8.084;2023-09-19T16:06:29;9.02;;;2.50;;
66485;SDS011;53303;47.476;8.084;2023-09-19T16:08:56;10.07;;;2.50;;